(°C)
15°
17°
18°
19°
20°
20°
21°
(°C)
11°
13°
14°
15°
16°
17°
18°
O
O
O
O
O
O
O
(km/u)
13-26
14-28
17-30
17-30
17-29
16-27
15-26
(mm)
0
0
0
0
0
0
0
(%)
0
0
0
0
0
0
0

Zonverhoging

/ 35.7°
sun-icon
UV 5
04:42
20:21
Wassende maan (19°)
05:33
22:19

METAR voor 52.17°N 20.97°O (EPWA)

Tijd Voorwaarden Temperatuur/
Dauwpunt
Wind Zicht Weer Wolken Luchtdruk Wijzigen Ruw
VFR 15°C / 6°C 70º 8kt >10km - Clouds and Visibility OK 1003 No Significant change EPWA 130630Z 07008KT CAVOK 15/06 Q1003 NOSIG
VFR 14°C / 5°C 100º variable 060º to 130º 7kt >10km - Clouds and Visibility OK 1003 No Significant change EPWA 130600Z 10007KT 060V130 CAVOK 14/05 Q1003 NOSIG
VFR 13°C / 5°C 100º 8kt >10km - Clouds and Visibility OK 1004 No Significant change EPWA 130530Z 10008KT CAVOK 13/05 Q1004 NOSIG
VFR 12°C / 5°C 100º 7kt >10km - Clouds and Visibility OK 1004 No Significant change EPWA 130500Z 10007KT CAVOK 12/05 Q1004 NOSIG
VFR 12°C / 5°C 90º 7kt >10km - Clouds and Visibility OK 1004 No Significant change EPWA 130430Z 09007KT CAVOK 12/05 Q1004 NOSIG
VFR 11°C / 5°C 80º 6kt >10km - Clouds and Visibility OK 1004 No Significant change EPWA 130400Z 08006KT CAVOK 11/05 Q1004 NOSIG
VFR 11°C / 5°C 90º 6kt >10km - Clouds and Visibility OK 1004 No Significant change EPWA 130330Z 09006KT CAVOK 11/05 Q1004 NOSIG
VFR 11°C / 5°C 90º 7kt >10km - Clouds and Visibility OK 1005 No Significant change EPWA 130300Z 09007KT CAVOK 11/05 Q1005 NOSIG
VFR 12°C / 5°C 90º 7kt >10km - Clouds and Visibility OK 1005 No Significant change EPWA 130230Z 09007KT CAVOK 12/05 Q1005 NOSIG
VFR 12°C / 5°C 110º 9kt >10km - Clouds and Visibility OK 1005 No Significant change EPWA 130200Z 11009KT CAVOK 12/05 Q1005 NOSIG
VFR 12°C / 5°C 110º 8kt >10km - Clouds and Visibility OK 1006 No Significant change EPWA 130130Z 11008KT CAVOK 12/05 Q1006 NOSIG
VFR 13°C / 5°C 110º 10kt >10km - Clouds and Visibility OK 1006 No Significant change EPWA 130100Z 11010KT CAVOK 13/05 Q1006 NOSIG
VFR 14°C / 4°C 110º 10kt >10km - Clouds and Visibility OK 1006 No Significant change EPWA 130030Z 11010KT CAVOK 14/04 Q1006 NOSIG
VFR 14°C / 4°C 110º 11kt >10km - Clouds and Visibility OK 1006 No Significant change EPWA 130000Z 11011KT CAVOK 14/04 Q1006 NOSIG
VFR 15°C / 4°C 110º 10kt >10km - Clouds and Visibility OK 1006 No Significant change EPWA 122330Z 11010KT CAVOK 15/04 Q1006 NOSIG
VFR 15°C / 4°C 120º 11kt >10km - Clouds and Visibility OK 1006 No Significant change EPWA 122300Z 12011KT CAVOK 15/04 Q1006 NOSIG
VFR 16°C / 4°C 120º 11kt >10km - Clouds and Visibility OK 1006 No Significant change EPWA 122230Z 12011KT CAVOK 16/04 Q1006 NOSIG
VFR 16°C / 4°C 110º 10kt >10km - Clouds and Visibility OK 1007 No Significant change EPWA 122200Z 11010KT CAVOK 16/04 Q1007 NOSIG
VFR 17°C / 4°C 120º 10kt >10km - Clouds and Visibility OK 1007 No Significant change EPWA 122130Z 12010KT CAVOK 17/04 Q1007 NOSIG
VFR 18°C / 4°C 110º 11kt >10km - Clouds and Visibility OK 1007 No Significant change EPWA 122100Z 11011KT CAVOK 18/04 Q1007 NOSIG
VFR 18°C / 5°C 120º 10kt >10km - Clouds and Visibility OK 1007 No Significant change EPWA 122030Z 12010KT CAVOK 18/05 Q1007 NOSIG
VFR 19°C / 6°C 120º 14kt >10km - Clouds and Visibility OK 1007 No Significant change EPWA 122000Z 12014KT CAVOK 19/06 Q1007 NOSIG
VFR 19°C / 9°C 120º 9kt >10km - Clouds and Visibility OK 1007 No Significant change EPWA 121930Z 12009KT CAVOK 19/09 Q1007 NOSIG
VFR 21°C / 9°C 110º 15kt >10km - Clouds and Visibility OK 1007 No Significant change EPWA 121900Z 11015KT CAVOK 21/09 Q1007 NOSIG

VFR

15°C / 6°C

[Meer]
Wind 70º 8kt
Zicht >10km
Weer -
Wolken Clouds and Visibility OK
Luchtdruk 1003
Wijzigen No Significant change
Ruw EPWA 130630Z 07008KT CAVOK 15/06 Q1003 NOSIG

VFR

14°C / 5°C

[Meer]
Wind 100º variable 060º to 130º 7kt
Zicht >10km
Weer -
Wolken Clouds and Visibility OK
Luchtdruk 1003
Wijzigen No Significant change
Ruw EPWA 130600Z 10007KT 060V130 CAVOK 14/05 Q1003 NOSIG

VFR

13°C / 5°C

[Meer]
Wind 100º 8kt
Zicht >10km
Weer -
Wolken Clouds and Visibility OK
Luchtdruk 1004
Wijzigen No Significant change
Ruw EPWA 130530Z 10008KT CAVOK 13/05 Q1004 NOSIG

VFR

12°C / 5°C

[Meer]
Wind 100º 7kt
Zicht >10km
Weer -
Wolken Clouds and Visibility OK
Luchtdruk 1004
Wijzigen No Significant change
Ruw EPWA 130500Z 10007KT CAVOK 12/05 Q1004 NOSIG

VFR

12°C / 5°C

[Meer]
Wind 90º 7kt
Zicht >10km
Weer -
Wolken Clouds and Visibility OK
Luchtdruk 1004
Wijzigen No Significant change
Ruw EPWA 130430Z 09007KT CAVOK 12/05 Q1004 NOSIG

VFR

11°C / 5°C

[Meer]
Wind 80º 6kt
Zicht >10km
Weer -
Wolken Clouds and Visibility OK
Luchtdruk 1004
Wijzigen No Significant change
Ruw EPWA 130400Z 08006KT CAVOK 11/05 Q1004 NOSIG

VFR

11°C / 5°C

[Meer]
Wind 90º 6kt
Zicht >10km
Weer -
Wolken Clouds and Visibility OK
Luchtdruk 1004
Wijzigen No Significant change
Ruw EPWA 130330Z 09006KT CAVOK 11/05 Q1004 NOSIG

VFR

11°C / 5°C

[Meer]
Wind 90º 7kt
Zicht >10km
Weer -
Wolken Clouds and Visibility OK
Luchtdruk 1005
Wijzigen No Significant change
Ruw EPWA 130300Z 09007KT CAVOK 11/05 Q1005 NOSIG

VFR

12°C / 5°C

[Meer]
Wind 90º 7kt
Zicht >10km
Weer -
Wolken Clouds and Visibility OK
Luchtdruk 1005
Wijzigen No Significant change
Ruw EPWA 130230Z 09007KT CAVOK 12/05 Q1005 NOSIG

VFR

12°C / 5°C

[Meer]
Wind 110º 9kt
Zicht >10km
Weer -
Wolken Clouds and Visibility OK
Luchtdruk 1005
Wijzigen No Significant change
Ruw EPWA 130200Z 11009KT CAVOK 12/05 Q1005 NOSIG

VFR

12°C / 5°C

[Meer]
Wind 110º 8kt
Zicht >10km
Weer -
Wolken Clouds and Visibility OK
Luchtdruk 1006
Wijzigen No Significant change
Ruw EPWA 130130Z 11008KT CAVOK 12/05 Q1006 NOSIG

VFR

13°C / 5°C

[Meer]
Wind 110º 10kt
Zicht >10km
Weer -
Wolken Clouds and Visibility OK
Luchtdruk 1006
Wijzigen No Significant change
Ruw EPWA 130100Z 11010KT CAVOK 13/05 Q1006 NOSIG

VFR

14°C / 4°C

[Meer]
Wind 110º 10kt
Zicht >10km
Weer -
Wolken Clouds and Visibility OK
Luchtdruk 1006
Wijzigen No Significant change
Ruw EPWA 130030Z 11010KT CAVOK 14/04 Q1006 NOSIG

VFR

14°C / 4°C

[Meer]
Wind 110º 11kt
Zicht >10km
Weer -
Wolken Clouds and Visibility OK
Luchtdruk 1006
Wijzigen No Significant change
Ruw EPWA 130000Z 11011KT CAVOK 14/04 Q1006 NOSIG

VFR

15°C / 4°C

[Meer]
Wind 110º 10kt
Zicht >10km
Weer -
Wolken Clouds and Visibility OK
Luchtdruk 1006
Wijzigen No Significant change
Ruw EPWA 122330Z 11010KT CAVOK 15/04 Q1006 NOSIG

VFR

15°C / 4°C

[Meer]
Wind 120º 11kt
Zicht >10km
Weer -
Wolken Clouds and Visibility OK
Luchtdruk 1006
Wijzigen No Significant change
Ruw EPWA 122300Z 12011KT CAVOK 15/04 Q1006 NOSIG

VFR

16°C / 4°C

[Meer]
Wind 120º 11kt
Zicht >10km
Weer -
Wolken Clouds and Visibility OK
Luchtdruk 1006
Wijzigen No Significant change
Ruw EPWA 122230Z 12011KT CAVOK 16/04 Q1006 NOSIG

VFR

16°C / 4°C

[Meer]
Wind 110º 10kt
Zicht >10km
Weer -
Wolken Clouds and Visibility OK
Luchtdruk 1007
Wijzigen No Significant change
Ruw EPWA 122200Z 11010KT CAVOK 16/04 Q1007 NOSIG

VFR

17°C / 4°C

[Meer]
Wind 120º 10kt
Zicht >10km
Weer -
Wolken Clouds and Visibility OK
Luchtdruk 1007
Wijzigen No Significant change
Ruw EPWA 122130Z 12010KT CAVOK 17/04 Q1007 NOSIG

VFR

18°C / 4°C

[Meer]
Wind 110º 11kt
Zicht >10km
Weer -
Wolken Clouds and Visibility OK
Luchtdruk 1007
Wijzigen No Significant change
Ruw EPWA 122100Z 11011KT CAVOK 18/04 Q1007 NOSIG

VFR

18°C / 5°C

[Meer]
Wind 120º 10kt
Zicht >10km
Weer -
Wolken Clouds and Visibility OK
Luchtdruk 1007
Wijzigen No Significant change
Ruw EPWA 122030Z 12010KT CAVOK 18/05 Q1007 NOSIG

VFR

19°C / 6°C

[Meer]
Wind 120º 14kt
Zicht >10km
Weer -
Wolken Clouds and Visibility OK
Luchtdruk 1007
Wijzigen No Significant change
Ruw EPWA 122000Z 12014KT CAVOK 19/06 Q1007 NOSIG

VFR

19°C / 9°C

[Meer]
Wind 120º 9kt
Zicht >10km
Weer -
Wolken Clouds and Visibility OK
Luchtdruk 1007
Wijzigen No Significant change
Ruw EPWA 121930Z 12009KT CAVOK 19/09 Q1007 NOSIG

VFR

21°C / 9°C

[Meer]
Wind 110º 15kt
Zicht >10km
Weer -
Wolken Clouds and Visibility OK
Luchtdruk 1007
Wijzigen No Significant change
Ruw EPWA 121900Z 11015KT CAVOK 21/09 Q1007 NOSIG

TAF voor 52.17°N 20.97°O (EPWA)

From till


From till Wind 110º 10kt. Visibility 10km or more. Nil Significant Cloud.
With 40% probability, Temporarly from till Light Showers Rain . Broken Clouds 3500ft.
Becoming from till Wind variable 2kt. Visibility 10km or more. Nil Significant Cloud.
With 40% probability, Temporarly from till Visibility 4000m. Thunderstorm Rain . Broken Clouds 2500ft.

Ruw: TAF EPWA 130530Z 1306/1406 11010KT CAVOK PROB40 TEMPO 1313/1320 -SHRA BKN035CB BECMG 1317/1320 VRB02KT PROB40 TEMPO 1320/1406 4000 TSRA BKN025CB

Huidige satelliet- en regenbeelden voor 52.17°N 20.97°O

  • Neerslag:
  • <1 mm
  • 1-2 mm
  • 2-5 mm
  • >5 mm

De locatiemarkering is geplaatst op 52.17°N 20.97°O. [Meer]

Het realtime satellietbeeld combineert zichtbaar licht overdag met infraroodstraling 's nachts. 's Nachts is het beeld niet donker, omdat infraroodstraling temperatuurverschillen kan waarnemen. Helaas zijn lage wolken en mist moeilijk te onderscheiden van grondtemperaturen en kunnen dus 's nachts bijna onzichtbaar zijn. Meteosat-satellietbeelden voor Europa worden elke 5 minuten in real time bijgewerkt. De beelden van GOES-16/GOES-17 (Noord- en Zuid-Amerika) en Himawari (Azië) worden om de 10 minuten bijgewerkt.

Neerslag wordt geschat door middel van radar en satellieten. Tijdens de nacht zijn de schattingen van satellieten minder nauwkeurig dan overdag. Oranje kruizen geven plaatsten aan waar bliksem werd waargenomen (boven Europa).

Copyright 2021 EUMETSAT / meteoblue. Bliksemgegevens verstrekt door nowcast.